createdAt,value
2022-09-23T00:01:08.100Z,1.50
2022-09-23T00:03:37.174Z,1.05
2022-09-23T00:06:07.089Z,1.10
2022-09-23T00:08:33.799Z,1.15
2022-09-23T00:11:12.599Z,0.90
2022-09-23T00:13:41.692Z,0.98
2022-09-23T00:16:10.561Z,1.20
2022-09-23T00:18:37.132Z,1.15
2022-09-23T00:21:08.417Z,1.27
2022-09-23T00:23:34.897Z,1.23
2022-09-23T00:26:03.703Z,1.48
2022-09-23T00:28:30.921Z,1.45
2022-09-23T00:31:01.452Z,1.73
2022-09-23T00:33:27.969Z,1.30
2022-09-23T00:36:01.918Z,1.08
2022-09-23T00:38:29.374Z,1.88
2022-09-23T00:40:56.315Z,1.45
2022-09-23T00:43:47.470Z,1.60
2022-09-23T00:46:31.002Z,1.38
2022-09-23T00:49:03.762Z,1.30
2022-09-23T00:51:34.511Z,2.13
2022-09-23T00:54:01.597Z,2.00
2022-09-23T00:56:28.301Z,1.20
2022-09-23T00:58:55.087Z,1.17
2022-09-23T01:01:21.661Z,1.58
2022-09-23T01:03:49.084Z,1.15
2022-09-23T01:06:15.722Z,1.35
2022-09-23T01:08:44.505Z,1.10
2022-09-23T01:11:29.441Z,1.15
2022-09-23T01:14:05.207Z,1.13
2022-09-23T01:16:44.220Z,1.27
2022-09-23T01:19:18.717Z,1.35
2022-09-23T01:21:54.828Z,1.10
2022-09-23T01:24:53.673Z,1.67
2022-09-23T01:27:42.165Z,1.38
2022-09-23T01:30:44.797Z,1.10
2022-09-23T01:33:39.714Z,1.20
2022-09-23T01:36:21.397Z,1.40
2022-09-23T01:38:59.131Z,1.33
2022-09-23T01:41:52.645Z,0.98
2022-09-23T01:44:27.538Z,1.90
2022-09-23T01:47:06.883Z,1.58
2022-09-23T01:49:57.986Z,1.83
2022-09-23T01:52:32.817Z,1.60
2022-09-23T01:57:41.314Z,1.42
2022-09-23T02:00:16.117Z,1.48
2022-09-23T02:05:30.713Z,1.30
2022-09-23T02:08:01.965Z,1.67
2022-09-23T02:10:28.397Z,1.30
2022-09-23T02:12:59.942Z,1.05
2022-09-23T02:15:34.926Z,1.40
2022-09-23T02:18:21.908Z,1.50
2022-09-23T02:20:51.019Z,1.40
2022-09-23T02:23:21.410Z,1.50
2022-09-23T02:26:16.193Z,1.20
2022-09-23T02:29:07.968Z,1.75
2022-09-23T02:31:45.458Z,1.58
2022-09-23T02:34:33.798Z,1.73
2022-09-23T02:37:17.038Z,1.23
2022-09-23T02:39:55.814Z,1.10
2022-09-23T02:42:28.479Z,1.30
2022-09-23T02:44:55.162Z,1.23
2022-09-23T02:47:25.131Z,1.23
2022-09-23T02:49:53.757Z,1.38
2022-09-23T02:52:20.307Z,1.33
2022-09-23T02:54:46.835Z,1.10
2022-09-23T02:57:14.441Z,1.27
2022-09-23T02:59:41.597Z,1.58
2022-09-23T03:02:08.040Z,1.55
2022-09-23T03:04:38.363Z,1.17
2022-09-23T03:07:19.419Z,1.50
2022-09-23T03:10:10.308Z,1.20
2022-09-23T03:12:52.900Z,1.27
2022-09-23T03:15:40.616Z,1.38
2022-09-23T03:20:54.605Z,1.48
2022-09-23T03:23:25.151Z,1.20
2022-09-23T03:25:54.088Z,1.25
2022-09-23T03:28:22.017Z,1.40
2022-09-23T03:30:50.993Z,1.10
2022-09-23T03:33:18.734Z,1.52
2022-09-23T03:36:09.430Z,1.33
2022-09-23T03:38:37.919Z,1.42
2022-09-23T03:43:31.446Z,1.33
2022-09-23T03:45:59.371Z,0.85
2022-09-23T03:48:25.938Z,1.13
2022-09-23T03:50:52.614Z,1.30
2022-09-23T03:53:21.083Z,1.35
2022-09-23T03:58:14.741Z,1.48
2022-09-23T04:00:42.286Z,0.93
2022-09-23T04:03:11.708Z,1.42
2022-09-23T04:05:38.825Z,1.10
2022-09-23T04:08:05.497Z,1.30
2022-09-23T04:10:32.070Z,1.48
2022-09-23T04:12:58.654Z,1.02
2022-09-23T04:15:25.173Z,2.15
2022-09-23T04:17:51.722Z,1.50
2022-09-23T04:20:19.206Z,1.63
2022-09-23T04:22:45.833Z,1.52
2022-09-23T04:25:12.668Z,2.00
2022-09-23T04:27:39.238Z,1.33
2022-09-23T04:30:06.917Z,1.63
2022-09-23T04:32:33.476Z,1.15
2022-09-23T04:35:00.117Z,1.20
2022-09-23T04:37:26.722Z,1.60
2022-09-23T04:39:53.714Z,1.55
2022-09-23T04:42:20.258Z,1.55
2022-09-23T04:44:46.713Z,1.55
2022-09-23T04:47:13.481Z,1.38
2022-09-23T04:49:40.722Z,1.52
2022-09-23T04:52:07.329Z,1.15
2022-09-23T04:54:33.842Z,1.27
2022-09-23T04:57:00.732Z,1.45
2022-09-23T04:59:27.298Z,1.23
2022-09-23T05:01:55.256Z,1.67
2022-09-23T05:04:21.816Z,1.90
2022-09-23T05:06:49.153Z,1.58
2022-09-23T05:09:17.376Z,1.48
2022-09-23T05:11:45.057Z,1.13
2022-09-23T05:14:11.656Z,1.00
2022-09-23T05:16:38.226Z,1.88
2022-09-23T05:19:05.451Z,1.77
2022-09-23T05:21:32.155Z,2.22
2022-09-23T05:24:00.494Z,1.20
2022-09-23T05:28:55.632Z,1.25
2022-09-23T05:31:24.859Z,1.17
2022-09-23T05:34:02.668Z,1.85
2022-09-23T05:36:35.606Z,1.50
2022-09-23T05:39:04.861Z,1.27
2022-09-23T05:44:12.334Z,1.35
2022-09-23T05:46:39.123Z,1.45
2022-09-23T05:49:06.053Z,1.13
2022-09-23T05:51:33.692Z,0.93
2022-09-23T05:54:02.830Z,1.27
2022-09-23T05:56:30.253Z,1.60
2022-09-23T05:58:58.307Z,1.65
2022-09-23T06:01:27.606Z,1.50
2022-09-23T06:03:56.440Z,1.15
2022-09-23T06:06:31.117Z,1.80
2022-09-23T06:08:59.295Z,1.60
2022-09-23T06:11:26.135Z,1.17
2022-09-23T06:13:59.275Z,1.50
2022-09-23T06:16:25.845Z,2.17
2022-09-23T06:18:52.333Z,1.38
2022-09-23T06:21:19.159Z,2.65
2022-09-23T06:23:46.395Z,1.73
2022-09-23T06:26:16.595Z,1.17
2022-09-23T06:28:44.371Z,0.98
2022-09-23T06:31:14.011Z,1.10
2022-09-23T06:33:42.689Z,1.08
2022-09-23T06:36:09.516Z,1.30
2022-09-23T06:38:39.396Z,1.40
2022-09-23T06:41:05.924Z,1.50
2022-09-23T06:43:32.686Z,1.40
2022-09-23T06:46:00.809Z,1.98
2022-09-23T06:48:28.486Z,1.30
2022-09-23T06:50:58.938Z,1.45
2022-09-23T06:53:25.519Z,1.33
2022-09-23T06:56:03.170Z,1.77
2022-09-23T06:58:31.564Z,1.70
2022-09-23T07:01:07.048Z,1.92
2022-09-23T07:03:34.557Z,2.47
2022-09-23T07:06:01.367Z,1.83
2022-09-23T07:08:29.203Z,1.85
2022-09-23T07:10:57.805Z,2.03
2022-09-23T07:13:24.707Z,1.67
2022-09-23T07:15:51.996Z,1.85
2022-09-23T07:18:19.453Z,1.40
2022-09-23T07:20:48.860Z,2.13
2022-09-23T07:23:16.044Z,2.03
2022-09-23T07:25:42.825Z,2.55
2022-09-23T07:28:09.349Z,1.92
2022-09-23T07:30:47.892Z,2.05
2022-09-23T07:33:31.073Z,2.22
2022-09-23T07:35:59.055Z,1.75
2022-09-23T07:38:31.337Z,2.10
2022-09-23T07:41:03.058Z,2.15
2022-09-23T07:43:31.794Z,1.83
2022-09-23T07:45:59.826Z,1.88
2022-09-23T07:48:29.616Z,2.70
2022-09-23T07:51:00.092Z,2.17
2022-09-23T07:53:27.071Z,2.38
2022-09-23T07:55:55.355Z,2.17
2022-09-23T07:58:22.212Z,3.58
2022-09-23T08:00:54.040Z,3.58
2022-09-23T08:03:21.211Z,3.55
2022-09-23T08:05:48.089Z,3.70
2022-09-23T08:08:14.570Z,3.92
2022-09-23T08:10:41.078Z,3.40
2022-09-23T08:13:07.623Z,4.53
2022-09-23T08:15:34.476Z,5.50
2022-09-23T08:18:01.455Z,3.42
2022-09-23T08:20:47.971Z,4.25
2022-09-23T08:23:16.673Z,3.40
2022-09-23T08:25:47.032Z,4.55
2022-09-23T08:28:18.689Z,4.32
2022-09-23T08:30:49.098Z,4.38
2022-09-23T08:33:19.641Z,3.70
2022-09-23T08:35:49.302Z,4.32
2022-09-23T08:38:16.042Z,2.85
2022-09-23T08:40:45.064Z,3.70
2022-09-23T08:43:25.948Z,3.10
2022-09-23T08:45:53.611Z,3.78
2022-09-23T08:48:31.131Z,3.90
2022-09-23T08:51:12.484Z,3.88
2022-09-23T08:53:39.393Z,2.50
2022-09-23T08:56:14.202Z,3.30
2022-09-23T08:59:15.074Z,3.15
2022-09-23T09:01:46.582Z,3.45
2022-09-23T09:04:19.101Z,4.60
2022-09-23T09:06:54.049Z,4.32
2022-09-23T09:09:30.674Z,3.28
2022-09-23T09:12:03.903Z,3.08
2022-09-23T09:14:36.990Z,3.65
2022-09-23T09:17:24.593Z,3.38
2022-09-23T09:20:01.969Z,3.10
2022-09-23T09:22:42.043Z,2.33
2022-09-23T09:25:19.547Z,2.10
2022-09-23T09:27:47.514Z,2.10
2022-09-23T09:30:14.560Z,2.83
2022-09-23T09:32:48.660Z,2.47
2022-09-23T09:35:37.689Z,2.42
2022-09-23T09:38:05.741Z,3.42
2022-09-23T09:40:34.568Z,2.20
2022-09-23T09:43:05.188Z,2.05
2022-09-23T09:46:02.475Z,2.70
2022-09-23T09:48:38.565Z,1.80
2022-09-23T09:51:18.710Z,2.00
2022-09-23T09:53:45.181Z,2.05
2022-09-23T09:56:15.123Z,1.65
2022-09-23T09:58:47.536Z,1.80
2022-09-23T10:01:25.767Z,3.05
2022-09-23T10:03:56.869Z,2.00
2022-09-23T10:06:30.262Z,2.28
2022-09-23T10:09:13.868Z,1.75
2022-09-23T10:11:41.653Z,2.13
2022-09-23T10:14:17.619Z,1.67
2022-09-23T10:16:46.143Z,1.70
2022-09-23T10:19:27.940Z,1.88
2022-09-23T10:21:56.911Z,2.20
2022-09-23T10:24:36.277Z,1.40
2022-09-23T10:27:11.726Z,1.55
2022-09-23T10:29:47.976Z,1.60
2022-09-23T10:32:25.577Z,1.77
2022-09-23T10:35:09.316Z,1.30
2022-09-23T10:37:48.238Z,1.80
2022-09-23T10:40:39.272Z,1.95
2022-09-23T10:43:49.424Z,1.90
2022-09-23T10:46:38.596Z,1.67
2022-09-23T10:49:37.114Z,2.03
2022-09-23T10:52:18.209Z,1.88
2022-09-23T10:57:45.114Z,2.13
2022-09-23T11:00:38.628Z,2.00
2022-09-23T11:03:24.350Z,1.55
2022-09-23T11:05:56.510Z,1.70
2022-09-23T11:08:32.082Z,1.92
2022-09-23T11:11:19.708Z,1.98
2022-09-23T11:13:54.844Z,1.80
2022-09-23T11:16:38.774Z,1.70
2022-09-23T11:19:24.415Z,1.92
2022-09-23T11:21:51.741Z,1.77
2022-09-23T11:24:58.525Z,1.75
2022-09-23T11:27:47.110Z,2.65
2022-09-23T11:30:19.931Z,1.60
2022-09-23T11:33:04.846Z,1.83
2022-09-23T11:35:35.695Z,2.03
2022-09-23T11:38:12.381Z,1.73
2022-09-23T11:40:43.906Z,1.52
2022-09-23T11:43:21.566Z,1.98
2022-09-23T11:46:00.853Z,2.05
2022-09-23T11:48:34.064Z,1.55
2022-09-23T11:51:03.479Z,1.50
2022-09-23T11:53:40.762Z,1.60
2022-09-23T11:56:32.004Z,2.22
2022-09-23T11:59:39.717Z,1.45
2022-09-23T12:02:31.378Z,1.45
2022-09-23T12:05:09.642Z,2.08
2022-09-23T12:07:56.664Z,1.52
2022-09-23T12:10:51.625Z,1.50
2022-09-23T12:13:27.174Z,1.38
2022-09-23T12:16:32.015Z,1.20
2022-09-23T12:19:18.927Z,1.15
2022-09-23T12:22:00.888Z,1.55
2022-09-23T12:24:58.531Z,1.30
2022-09-23T12:27:38.918Z,1.20
2022-09-23T12:30:13.938Z,1.30
2022-09-23T12:32:42.224Z,1.13
2022-09-23T12:35:23.815Z,1.40
2022-09-23T12:37:51.865Z,1.40
2022-09-23T12:40:31.022Z,1.33
2022-09-23T12:42:59.238Z,1.50
2022-09-23T12:47:59.214Z,1.20
2022-09-23T12:50:48.477Z,1.50
2022-09-23T12:53:47.168Z,1.40
2022-09-23T12:56:19.462Z,1.70
2022-09-23T12:58:45.871Z,1.58
2022-09-23T13:01:23.555Z,1.50
2022-09-23T13:04:13.777Z,1.20
2022-09-23T13:06:50.644Z,1.70
2022-09-23T13:09:24.781Z,1.50
2022-09-23T13:11:53.067Z,1.38
2022-09-23T13:14:26.701Z,1.38
2022-09-23T13:16:57.213Z,2.20
2022-09-23T13:19:26.872Z,1.63
2022-09-23T13:21:53.287Z,1.63
2022-09-23T13:24:44.123Z,1.20
2022-09-23T13:27:21.988Z,1.63
2022-09-23T13:30:00.445Z,1.50
2022-09-23T13:32:31.841Z,2.13
2022-09-23T13:35:00.375Z,2.10
2022-09-23T13:37:38.922Z,1.58
2022-09-23T13:40:19.774Z,1.10
2022-09-23T13:42:49.341Z,1.35
2022-09-23T13:45:18.650Z,1.58
2022-09-23T13:47:47.046Z,1.20
2022-09-23T13:50:18.168Z,0.90
2022-09-23T13:52:45.142Z,1.00
2022-09-23T13:55:32.619Z,1.50
2022-09-23T13:58:02.289Z,0.98
2022-09-23T14:00:35.132Z,1.20
2022-09-23T14:03:03.554Z,1.55
2022-09-23T14:05:34.817Z,1.13
2022-09-23T14:08:02.433Z,1.40
2022-09-23T14:10:28.931Z,1.08
2022-09-23T14:12:56.428Z,1.35
2022-09-23T14:15:23.016Z,1.10
2022-09-23T14:18:06.202Z,1.15
2022-09-23T14:20:34.176Z,1.25
2022-09-23T14:23:10.062Z,1.30
2022-09-23T14:25:36.862Z,1.45
2022-09-23T14:28:04.433Z,1.65
2022-09-23T14:30:31.166Z,1.20
2022-09-23T14:32:58.354Z,1.45
2022-09-23T14:35:28.077Z,1.45
2022-09-23T14:38:15.238Z,1.38
2022-09-23T14:41:14.845Z,1.27
2022-09-23T14:44:02.112Z,1.13
2022-09-23T14:46:32.803Z,1.83
2022-09-23T14:49:10.985Z,1.00
2022-09-23T14:51:46.929Z,1.33
2022-09-23T14:54:35.674Z,1.40
2022-09-23T14:57:24.080Z,1.35
2022-09-23T14:59:53.489Z,1.05
2022-09-23T15:02:39.697Z,1.10
2022-09-23T15:05:29.422Z,1.20
2022-09-23T15:07:57.998Z,1.10
2022-09-23T15:10:31.163Z,1.75
2022-09-23T15:13:15.173Z,1.35
2022-09-23T15:15:42.271Z,1.15
2022-09-23T15:18:29.231Z,1.35
2022-09-23T15:21:07.993Z,1.30
2022-09-23T15:23:40.855Z,1.08
2022-09-23T15:26:10.289Z,1.25
2022-09-23T15:28:36.836Z,1.30
2022-09-23T15:31:05.658Z,1.63
2022-09-23T15:33:32.570Z,1.38
2022-09-23T15:35:59.084Z,1.30
2022-09-23T15:38:27.242Z,1.20
2022-09-23T15:40:54.288Z,1.50
2022-09-23T15:43:24.068Z,1.25
2022-09-23T15:45:55.782Z,1.15
2022-09-23T15:48:28.098Z,1.40
2022-09-23T15:50:55.015Z,1.27
2022-09-23T15:53:23.875Z,1.38
2022-09-23T15:55:51.067Z,1.52
2022-09-23T15:58:21.765Z,1.52
2022-09-23T16:00:55.728Z,1.75
2022-09-23T16:03:28.862Z,1.60
2022-09-23T16:06:00.563Z,1.08
2022-09-23T16:08:27.913Z,1.70
2022-09-23T16:10:55.067Z,1.60
2022-09-23T16:13:21.864Z,1.70
2022-09-23T16:15:48.359Z,1.48
2022-09-23T16:18:14.944Z,1.15
2022-09-23T16:20:44.538Z,1.17
2022-09-23T16:23:35.129Z,1.30
2022-09-23T16:26:18.489Z,1.42
2022-09-23T16:28:46.566Z,1.13
2022-09-23T16:31:16.061Z,1.67
2022-09-23T16:33:43.748Z,1.35
2022-09-23T16:36:17.656Z,1.20
2022-09-23T16:38:44.359Z,1.27
2022-09-23T16:41:11.607Z,1.23
2022-09-23T16:43:39.742Z,1.13
2022-09-23T16:48:40.435Z,2.13
2022-09-23T16:51:08.195Z,1.27
2022-09-23T16:53:35.128Z,1.10
2022-09-23T16:56:09.306Z,1.15
2022-09-23T16:58:36.723Z,1.27
2022-09-23T17:01:22.591Z,0.98
2022-09-23T17:03:49.372Z,1.20
2022-09-23T17:06:17.987Z,1.10
2022-09-23T17:08:48.250Z,1.48
2022-09-23T17:11:16.387Z,1.40
2022-09-23T17:13:44.271Z,1.45
2022-09-23T17:16:11.890Z,1.30
2022-09-23T17:18:41.119Z,1.65
2022-09-23T17:21:08.321Z,1.60
2022-09-23T17:23:35.862Z,1.48
2022-09-23T17:26:03.028Z,1.30
2022-09-23T17:28:29.511Z,1.25
2022-09-23T17:31:00.368Z,1.40
2022-09-23T17:33:28.064Z,1.45
2022-09-23T17:35:54.975Z,1.42
2022-09-23T17:38:28.708Z,1.40
2022-09-23T17:40:57.494Z,1.77
2022-09-23T17:45:56.036Z,1.25
2022-09-23T17:48:25.262Z,1.75
2022-09-23T17:50:59.401Z,1.30
2022-09-23T17:53:26.218Z,1.48
2022-09-23T17:55:57.726Z,0.82
2022-09-23T17:58:25.970Z,1.48
2022-09-23T18:03:19.372Z,1.42
2022-09-23T18:05:46.139Z,1.30
2022-09-23T18:08:13.067Z,1.50
2022-09-23T18:10:39.766Z,1.58
2022-09-23T18:13:11.005Z,1.42
2022-09-23T18:15:38.904Z,1.67
2022-09-23T18:18:06.032Z,1.70
2022-09-23T18:20:33.122Z,1.38
2022-09-23T18:22:59.671Z,1.30
2022-09-23T18:25:39.290Z,1.52
2022-09-23T18:28:06.569Z,1.60
2022-09-23T18:30:33.588Z,1.65
2022-09-23T18:33:00.282Z,1.67
2022-09-23T18:35:26.810Z,1.63
2022-09-23T18:37:53.381Z,1.88
2022-09-23T18:40:20.046Z,1.42
2022-09-23T18:42:46.963Z,1.20
2022-09-23T18:45:13.562Z,1.40
2022-09-23T18:47:58.732Z,1.30
2022-09-23T18:50:42.974Z,1.52
2022-09-23T18:53:10.308Z,1.58
2022-09-23T18:55:41.034Z,1.70
2022-09-23T18:59:10.796Z,1.38
2022-09-23T19:01:38.041Z,1.35
2022-09-23T19:04:04.938Z,1.48
2022-09-23T19:06:35.787Z,1.70
2022-09-23T19:09:02.389Z,1.40
2022-09-23T19:11:29.277Z,1.58
2022-09-23T19:13:57.626Z,1.50
2022-09-23T19:16:33.831Z,1.13
2022-09-23T19:19:00.969Z,1.83
2022-09-23T19:21:28.414Z,1.40
2022-09-23T19:23:56.875Z,1.70
2022-09-23T19:26:26.807Z,1.95
2022-09-23T19:28:55.350Z,1.40
2022-09-23T19:31:24.615Z,1.35
2022-09-23T19:34:01.518Z,1.20
2022-09-23T19:36:37.576Z,1.42
2022-09-23T19:39:09.797Z,1.15
2022-09-23T19:41:36.503Z,1.10
2022-09-23T19:44:03.856Z,1.63
2022-09-23T19:46:31.192Z,1.88
2022-09-23T19:48:58.472Z,1.50
2022-09-23T19:51:25.686Z,1.40
2022-09-23T19:53:52.923Z,1.70
2022-09-23T19:56:19.839Z,1.67
2022-09-23T19:58:52.417Z,1.60
2022-09-23T20:01:19.335Z,1.33
2022-09-23T20:03:47.000Z,1.65
2022-09-23T20:06:14.775Z,1.25
2022-09-23T20:08:41.807Z,1.70
2022-09-23T20:11:14.739Z,1.65
2022-09-23T20:13:45.784Z,1.80
2022-09-23T20:16:14.118Z,1.38
2022-09-23T20:18:41.817Z,2.67
2022-09-23T20:21:11.100Z,1.35
2022-09-23T20:23:37.790Z,1.75
2022-09-23T20:26:24.158Z,2.00
2022-09-23T20:28:54.898Z,2.20
2022-09-23T20:31:22.996Z,1.67
2022-09-23T20:33:51.568Z,1.60
2022-09-23T20:36:18.566Z,2.15
2022-09-23T20:38:47.903Z,1.73
2022-09-23T20:41:16.461Z,2.63
2022-09-23T20:43:43.899Z,1.95
2022-09-23T20:46:10.668Z,1.98
2022-09-23T20:48:37.298Z,1.92
2022-09-23T20:51:05.351Z,1.48
2022-09-23T20:53:34.383Z,1.73
2022-09-23T20:56:01.133Z,1.60
2022-09-23T20:58:29.421Z,2.10
2022-09-23T21:03:33.335Z,1.52
2022-09-23T21:06:03.908Z,2.10
2022-09-23T21:08:31.648Z,1.38
2022-09-23T21:11:00.008Z,1.67
2022-09-23T21:13:26.711Z,1.80
2022-09-23T21:15:53.501Z,1.98
2022-09-23T21:18:22.605Z,1.42
2022-09-23T21:20:56.667Z,1.45
2022-09-23T21:23:31.280Z,1.52
2022-09-23T21:26:06.629Z,2.20
2022-09-23T21:28:35.221Z,1.40
2022-09-23T21:31:03.938Z,2.20
2022-09-23T21:33:31.298Z,1.92
2022-09-23T21:36:03.732Z,1.80
2022-09-23T21:38:37.426Z,1.75
2022-09-23T21:41:07.171Z,1.65
2022-09-23T21:43:35.734Z,1.90
2022-09-23T21:46:07.841Z,1.27
2022-09-23T21:48:41.121Z,1.90
2022-09-23T21:51:13.185Z,1.65
2022-09-23T21:53:41.003Z,2.05
2022-09-23T21:56:08.573Z,1.58
2022-09-23T21:58:37.516Z,1.88
2022-09-23T22:01:12.351Z,1.80
2022-09-23T22:03:39.602Z,1.50
2022-09-23T22:06:11.387Z,1.60
2022-09-23T22:08:40.616Z,1.75
2022-09-23T22:11:32.958Z,2.00
2022-09-23T22:14:02.035Z,1.80
2022-09-23T22:16:29.405Z,1.77
2022-09-23T22:18:58.393Z,1.60
2022-09-23T22:21:26.674Z,1.38
2022-09-23T22:23:54.330Z,2.10
2022-09-23T22:26:20.955Z,1.83
2022-09-23T22:29:06.108Z,1.77
2022-09-23T22:31:51.375Z,2.17
2022-09-23T22:34:47.533Z,1.70
2022-09-23T22:37:06.859Z,1.52
2022-09-23T22:39:33.495Z,2.03
2022-09-23T22:42:00.263Z,1.60
2022-09-23T22:44:26.934Z,2.08
2022-09-23T22:46:53.896Z,2.40
2022-09-23T22:49:21.118Z,1.38
2022-09-23T22:51:48.015Z,2.72
2022-09-23T22:54:34.252Z,1.80
2022-09-23T22:57:04.610Z,1.60
2022-09-23T22:59:31.551Z,1.42
2022-09-23T23:02:00.476Z,2.03
2022-09-23T23:04:30.909Z,1.70
2022-09-23T23:06:58.871Z,1.63
2022-09-23T23:09:26.178Z,2.13
2022-09-23T23:11:53.132Z,2.03
2022-09-23T23:14:20.201Z,2.10
2022-09-23T23:16:47.038Z,1.88
2022-09-23T23:19:17.015Z,1.38
2022-09-23T23:21:44.933Z,2.05
2022-09-23T23:24:19.788Z,1.63
2022-09-23T23:29:14.523Z,1.80
2022-09-23T23:31:41.460Z,1.65
2022-09-23T23:34:11.875Z,1.50
2022-09-23T23:36:38.593Z,1.95
2022-09-23T23:39:05.395Z,1.55
2022-09-23T23:41:31.934Z,1.70
2022-09-23T23:44:00.058Z,1.42
2022-09-23T23:46:28.673Z,1.55
2022-09-23T23:48:56.507Z,1.63
2022-09-23T23:51:27.798Z,2.13
2022-09-23T23:53:54.959Z,1.83
2022-09-23T23:56:23.706Z,1.83
2022-09-23T23:58:54.858Z,1.83
